Terminal Aerodrome Forecast
Issued by NWS Cleveland, OH

Home | Current Version | Previous Version | Graphics & Text | Print | Product List | Glossary Off
Versions: 1 2 3 4 5 6 7 8 9 10 11 12 13 14 15 16 17 18 19 20 21 22 23 24 25 26 27 28

000
FTUS41 KCLE 311100 AAA
TAFCLE
TAF AMD
KCLE 311105Z 3111/0112 21005KT 4SM BR SCT100 SCT250
      TEMPO 3112/3113 6SM BR
     FM311300 24007KT P6SM FEW045
     FM010100 21004KT P6SM FEW050=

USA.gov is the U.S. government's official web portal to all federal, state and local government web resources and services.